• Join FlightAware (Why Join?)
  • Login
  • US Flag 
06:08PM EDT


 

Airport Tracker/Info


-or-


 

Live Flight TrackerFlight Track Log ✈ DAL6035 ✈ 30-Apr-2013 ✈ KMHT - KLGA

Flight Track Log - Related Links

Times and Time Zones

All times are in EDT time to prevent confusion due to time zone crossing. See the DAL6035 flight status page for this flight to view local times or setup timezone preferences in your user account.

Time Position Orientation Groundspeed Altitude Reporting Facility
EDT Latitude Longitude Course Direction KTS MPH feet Rate Location/Type
01:07PM 42.8833 -71.4500 200° South 184 212 2,400  Level KA90
01:08PM 42.8989 -71.5161 288° West 236 272 4,900 2,640 Climbing Boston Center
01:09PM 42.9411 -71.5836 311° West 236 272 7,200 2,400 Climbing Boston Center
01:10PM 42.6773 -71.8454 236° Southwest  Level FlightAware Approximate
01:10PM 42.9917 -71.6567 313° West 258 297 9,800  Level Boston Center
01:11PM 42.6175 -71.9488 231° Southwest  Level FlightAware Approximate
01:11PM 43.0256 -71.7528 296° West 272 313 11,500  Level Boston Center
01:12PM 42.5564 -72.0509 232° Southwest  Level FlightAware Approximate
01:12PM 42.9972 -71.8753 252° West 311 358 13,100  Level Boston Center
01:13PM 42.9706 -72.0031 254° West 340 391 14,500 1,440 Climbing Boston Center
01:14PM 42.9439 -72.1394 255° West 365 420 16,000 1,500 Climbing Boston Center
01:15PM 42.9150 -72.2700 253° West 375 432 17,500 960 Climbing Boston Center
01:16PM 42.8525 -72.3864 234° Southwest 375 432 18,000 240 Climbing Boston Center
01:17PM 42.7692 -72.4939 223° Southwest 387 445 18,000  Level Boston Center
01:18PM 42.6858 -72.5953 222° Southwest 397 457 18,000  Level Boston Center
01:19PM 42.6003 -72.6967 221° Southwest 409 471 18,000  Level Boston Center
01:20PM 42.5250 -72.7894 222° Southwest 414 476 18,000  Level Boston Center
01:21PM 42.4328 -72.9042 223° Southwest 414 476 18,000  Level Boston Center
01:22PM 42.3553 -72.9992 222° Southwest 414 476 18,000  Level Boston Center
01:23PM 42.2692 -73.1192 226° Southwest 409 471 18,000  Level Boston Center
01:24PM 42.2164 -73.2333 238° Southwest 408 470 18,000  Level Boston Center
01:25PM 42.1508 -73.3642 236° Southwest 414 476 18,000  Level Boston Center
01:26PM 42.0519 -73.4633 217° Southwest 404 465 18,000 -120 Level Boston Center
01:27PM 41.9678 -73.5403 214° Southwest 409 471 17,800 -600 Descending Boston Center
01:28PM 41.8667 -73.6361 215° Southwest 409 471 16,900 -1,320 Descending Boston Center
01:29PM 41.7808 -73.6928 206° Southwest 401 461 15,200 -1,920 Descending Boston Center
01:30PM 41.6700 -73.7211 191° South 382 440 13,100 -2,100 Descending Boston Center
01:31PM 41.5822 -73.7444 191° South 369 425 11,000 -1,860 Descending Boston Center
01:31PM 41.5167 -73.7500 184° South 319 367 10,300 -1,140 Descending New York TRACON
01:32PM 41.4500 -73.7667 191° South 274 315 9,300 -480 Descending New York TRACON
01:34PM 41.3659 -73.8159 143° Southeast  Level FlightAware Approximate
01:34PM 41.3000 -73.7500 143° Southeast 283 326 9,000  Level New York TRACON
01:35PM 41.2333 -73.7000 151° Southeast 265 305 9,000 -480 Level New York TRACON
01:36PM 41.1833 -73.6667 153° Southeast 218 251 8,200 -1,260 Descending New York TRACON
01:37PM 41.1333 -73.6500 166° South 229 264 6,700 -1,320 Descending New York TRACON
01:38PM 41.0667 -73.6500 180° South 218 251 5,600 -1,140 Descending New York TRACON
01:39PM 41.0167 -73.6833 207° Southwest 214 246 4,500 -1,020 Descending New York TRACON
01:40PM 40.9667 -73.7167 207° Southwest 214 246 3,600 -720 Descending New York TRACON
01:41PM 40.9167 -73.7500 207° Southwest 180 207 3,100 -540 Descending New York TRACON